createdAt,value
2018-01-08T00:02:01.126Z,2.28
2018-01-08T00:04:28.665Z,3.62
2018-01-08T00:06:56.097Z,7.62
2018-01-08T00:09:23.622Z,3.00
2018-01-08T00:11:51.063Z,3.95
2018-01-08T00:14:18.477Z,2.25
2018-01-08T00:16:45.986Z,10.93
2018-01-08T00:19:13.406Z,3.35
2018-01-08T00:21:40.902Z,3.92
2018-01-08T00:24:08.673Z,2.33
2018-01-08T00:26:36.442Z,6.60
2018-01-08T00:29:03.902Z,3.15
2018-01-08T00:31:31.318Z,4.65
2018-01-08T00:33:58.805Z,3.42
2018-01-08T00:36:26.235Z,6.12
2018-01-08T00:38:53.715Z,4.53
2018-01-08T00:41:21.125Z,8.13
2018-01-08T00:43:48.646Z,5.47
2018-01-08T00:46:16.087Z,3.65
2018-01-08T00:48:43.526Z,4.72
2018-01-08T00:51:11.009Z,3.87
2018-01-08T00:53:38.475Z,2.90
2018-01-08T00:56:05.882Z,5.97
2018-01-08T00:58:33.385Z,3.00
2018-01-08T01:01:01.026Z,3.50
2018-01-08T01:03:28.613Z,3.53
2018-01-08T01:05:56.252Z,4.07
2018-01-08T01:08:23.738Z,3.22
2018-01-08T01:10:51.295Z,3.03
2018-01-08T01:13:18.923Z,2.47
2018-01-08T01:15:46.434Z,13.40
2018-01-08T01:18:13.863Z,2.00
2018-01-08T01:20:41.298Z,8.05
2018-01-08T01:23:08.887Z,4.03
2018-01-08T01:25:36.650Z,5.97
2018-01-08T01:28:04.066Z,4.35
2018-01-08T01:30:31.522Z,3.05
2018-01-08T01:32:59.031Z,16.50
2018-01-08T01:35:26.486Z,14.93
2018-01-08T01:37:53.911Z,3.17
2018-01-08T01:40:21.329Z,8.18
2018-01-08T01:42:49.777Z,3.67
2018-01-08T01:45:17.433Z,4.78
2018-01-08T01:47:44.918Z,6.25
2018-01-08T01:50:12.458Z,4.57
2018-01-08T01:52:39.947Z,4.95
2018-01-08T01:55:07.558Z,3.95
2018-01-08T01:57:35.027Z,11.05
2018-01-08T02:00:02.606Z,7.03
2018-01-08T02:02:30.365Z,6.28
2018-01-08T02:04:57.891Z,3.42
2018-01-08T02:07:25.590Z,2.40
2018-01-08T02:09:53.043Z,7.57
2018-01-08T02:12:20.465Z,3.60
2018-01-08T02:14:47.881Z,6.18
2018-01-08T02:17:15.306Z,8.45
2018-01-08T02:19:42.883Z,6.37
2018-01-08T02:22:10.338Z,10.63
2018-01-08T02:24:37.766Z,4.97
2018-01-08T02:27:05.297Z,9.45
2018-01-08T02:29:32.899Z,4.82
2018-01-08T02:32:00.375Z,6.70
2018-01-08T02:34:27.843Z,5.10
2018-01-08T02:36:56.073Z,4.82
2018-01-08T02:39:24.325Z,5.68
2018-01-08T02:41:51.837Z,7.32
2018-01-08T02:44:19.633Z,6.32
2018-01-08T02:46:47.434Z,6.07
2018-01-08T02:49:14.815Z,4.95
2018-01-08T02:51:42.230Z,5.18
2018-01-08T02:54:09.741Z,7.47
2018-01-08T02:56:37.373Z,5.10
2018-01-08T02:59:04.961Z,5.55
2018-01-08T03:01:32.377Z,4.80
2018-01-08T03:03:59.793Z,6.18
2018-01-08T03:06:27.209Z,6.95
2018-01-08T03:08:54.696Z,7.20
2018-01-08T03:11:22.165Z,6.90
2018-01-08T03:13:49.593Z,3.15
2018-01-08T03:16:17.167Z,7.45
2018-01-08T03:18:44.582Z,5.43
2018-01-08T03:21:12.014Z,6.07
2018-01-08T03:23:39.447Z,4.93
2018-01-08T03:26:06.937Z,6.20
2018-01-08T03:28:34.461Z,4.28
2018-01-08T03:31:01.922Z,10.25
2018-01-08T03:33:29.570Z,6.18
2018-01-08T03:35:57.047Z,4.97
2018-01-08T03:38:24.497Z,6.47
2018-01-08T03:40:51.986Z,6.93
2018-01-08T03:43:19.406Z,10.20
2018-01-08T03:45:46.974Z,2.03
2018-01-08T03:48:14.414Z,10.05
2018-01-08T03:50:41.835Z,6.40
2018-01-08T03:53:09.350Z,5.00
2018-01-08T03:55:37.305Z,7.07
2018-01-08T03:58:04.872Z,4.82
2018-01-08T04:00:32.293Z,6.47
2018-01-08T04:02:59.725Z,6.68
2018-01-08T04:05:27.141Z,9.25
2018-01-08T04:07:54.641Z,16.85
2018-01-08T04:10:22.064Z,9.88
2018-01-08T04:12:49.617Z,9.88
2018-01-08T04:15:17.034Z,5.70
2018-01-08T04:17:44.542Z,8.05
2018-01-08T04:20:11.957Z,3.97
2018-01-08T04:22:39.449Z,5.47
2018-01-08T04:25:06.864Z,8.35
2018-01-08T04:27:34.285Z,5.62
2018-01-08T04:30:01.826Z,6.10
2018-01-08T04:32:29.286Z,5.70
2018-01-08T04:34:56.745Z,8.18
2018-01-08T04:37:24.170Z,3.45
2018-01-08T04:39:51.653Z,5.50
2018-01-08T04:42:19.075Z,6.50
2018-01-08T04:44:46.505Z,9.55
2018-01-08T04:47:14.026Z,5.07
2018-01-08T04:49:41.453Z,11.50
2018-01-08T04:52:08.916Z,7.07
2018-01-08T04:54:36.401Z,5.22
2018-01-08T04:57:03.830Z,4.65
2018-01-08T04:59:31.322Z,7.47
2018-01-08T05:01:58.761Z,8.35
2018-01-08T05:04:26.229Z,6.97
2018-01-08T05:06:53.661Z,2.92
2018-01-08T05:09:21.117Z,6.80
2018-01-08T05:11:48.613Z,6.07
2018-01-08T05:14:16.028Z,5.45
2018-01-08T05:16:43.450Z,4.07
2018-01-08T05:19:10.980Z,14.02
2018-01-08T05:21:38.745Z,4.72
2018-01-08T05:24:06.374Z,9.52
2018-01-08T05:26:33.968Z,6.20
2018-01-08T05:29:01.401Z,7.60
2018-01-08T05:31:28.809Z,5.12
2018-01-08T05:33:56.340Z,6.57
2018-01-08T05:36:23.790Z,4.80
2018-01-08T05:38:51.206Z,7.80
2018-01-08T05:41:18.713Z,8.50
2018-01-08T05:43:46.175Z,5.65
2018-01-08T05:46:13.810Z,4.45
2018-01-08T05:48:41.290Z,5.82
2018-01-08T05:51:08.723Z,7.55
2018-01-08T05:53:37.098Z,8.13
2018-01-08T05:56:04.590Z,9.40
2018-01-08T05:58:32.149Z,7.87
2018-01-08T06:00:59.565Z,10.80
2018-01-08T06:03:26.986Z,6.45
2018-01-08T06:05:54.521Z,6.62
2018-01-08T06:08:21.981Z,9.02
2018-01-08T06:10:49.448Z,5.53
2018-01-08T06:13:16.857Z,4.72
2018-01-08T06:15:44.354Z,4.82
2018-01-08T06:18:11.765Z,6.18
2018-01-08T06:20:40.193Z,8.90
2018-01-08T06:23:07.633Z,5.72
2018-01-08T06:25:35.053Z,10.52
2018-01-08T06:28:02.493Z,5.90
2018-01-08T06:30:29.927Z,7.18
2018-01-08T06:32:57.477Z,3.58
2018-01-08T06:35:24.901Z,5.53
2018-01-08T06:37:52.397Z,8.55
2018-01-08T06:40:19.858Z,8.07
2018-01-08T06:42:47.485Z,11.35
2018-01-08T06:45:14.905Z,3.47
2018-01-08T06:47:42.438Z,8.65
2018-01-08T06:50:09.989Z,10.48
2018-01-08T06:52:37.467Z,10.60
2018-01-08T06:55:04.849Z,10.80
2018-01-08T06:57:33.190Z,5.28
2018-01-08T07:00:00.763Z,9.30
2018-01-08T07:02:28.401Z,5.75
2018-01-08T07:04:55.833Z,10.43
2018-01-08T07:07:23.433Z,11.00
2018-01-08T07:09:50.887Z,3.58
2018-01-08T07:12:18.302Z,6.47
2018-01-08T07:14:45.725Z,4.93
2018-01-08T07:17:13.262Z,8.95
2018-01-08T07:19:40.689Z,8.27
2018-01-08T07:22:08.125Z,10.15
2018-01-08T07:24:36.517Z,12.10
2018-01-08T07:27:04.033Z,7.28
2018-01-08T07:29:31.461Z,10.07
2018-01-08T07:31:58.873Z,6.78
2018-01-08T07:34:26.386Z,10.93
2018-01-08T07:36:54.149Z,8.75
2018-01-08T07:39:21.605Z,10.25
2018-01-08T07:41:49.069Z,7.80
2018-01-08T07:44:16.512Z,5.40
2018-01-08T07:46:43.937Z,14.48
2018-01-08T07:49:11.370Z,9.02
2018-01-08T07:51:39.817Z,8.85
2018-01-08T07:54:07.467Z,10.50
2018-01-08T07:56:34.909Z,10.65
2018-01-08T07:59:02.502Z,6.68
2018-01-08T08:01:29.944Z,9.75
2018-01-08T08:03:57.348Z,5.05
2018-01-08T08:06:25.668Z,6.03
2018-01-08T08:08:53.245Z,7.65
2018-01-08T08:11:20.694Z,12.02
2018-01-08T08:13:48.160Z,9.75
2018-01-08T08:16:15.582Z,4.35
2018-01-08T08:18:43.774Z,17.50
2018-01-08T08:21:11.190Z,7.18
2018-01-08T08:23:38.927Z,5.43
2018-01-08T08:26:06.552Z,6.57
2018-01-08T08:28:34.176Z,5.20
2018-01-08T08:31:01.598Z,13.77
2018-01-08T08:33:29.042Z,7.85
2018-01-08T08:35:56.465Z,18.52
2018-01-08T08:38:24.893Z,6.72
2018-01-08T08:40:52.325Z,13.20
2018-01-08T08:43:19.761Z,4.53
2018-01-08T08:45:47.270Z,14.25
2018-01-08T08:48:14.721Z,9.85
2018-01-08T08:50:42.185Z,15.60
2018-01-08T08:53:09.835Z,10.60
2018-01-08T08:55:37.305Z,8.25
2018-01-08T08:58:04.777Z,12.52
2018-01-08T09:00:32.258Z,6.65
2018-01-08T09:02:59.702Z,13.23
2018-01-08T09:05:27.242Z,12.98
2018-01-08T09:07:54.886Z,13.40
2018-01-08T09:10:22.467Z,5.43
2018-01-08T09:12:49.909Z,8.85
2018-01-08T09:15:17.328Z,16.50
2018-01-08T09:17:44.769Z,12.75
2018-01-08T09:20:12.195Z,9.85
2018-01-08T09:22:39.940Z,8.82
2018-01-08T09:25:08.129Z,10.90
2018-01-08T09:27:35.582Z,7.82
2018-01-08T09:30:03.041Z,6.15
2018-01-08T09:32:30.502Z,8.88
2018-01-08T09:34:58.136Z,9.40
2018-01-08T09:37:25.721Z,12.98
2018-01-08T09:39:53.149Z,6.82
2018-01-08T09:42:20.644Z,13.00
2018-01-08T09:44:48.116Z,9.27
2018-01-08T09:47:15.486Z,11.98
2018-01-08T09:49:42.922Z,9.27
2018-01-08T09:52:10.470Z,5.57
2018-01-08T09:54:37.913Z,17.17
2018-01-08T09:57:05.334Z,7.00
2018-01-08T09:59:33.765Z,8.65
2018-01-08T10:02:01.191Z,10.18
2018-01-08T10:04:40.492Z,6.28
2018-01-08T10:07:19.746Z,10.27
2018-01-08T10:09:59.825Z,9.73
2018-01-08T10:12:39.078Z,8.70
2018-01-08T10:15:18.418Z,8.23
2018-01-08T10:17:57.506Z,4.68
2018-01-08T10:20:25.013Z,8.15
2018-01-08T10:22:52.430Z,9.25
2018-01-08T10:25:19.921Z,6.95
2018-01-08T10:27:47.341Z,7.00
2018-01-08T10:30:14.773Z,10.57
2018-01-08T10:32:42.193Z,3.78
2018-01-08T10:35:09.697Z,7.30
2018-01-08T10:37:37.116Z,8.55
2018-01-08T10:40:04.594Z,9.98
2018-01-08T10:42:37.604Z,13.75
2018-01-08T10:45:10.840Z,10.35
2018-01-08T10:47:43.862Z,5.60
2018-01-08T10:50:17.019Z,7.07
2018-01-08T10:52:46.850Z,7.22
2018-01-08T10:55:14.301Z,11.63
2018-01-08T10:57:41.934Z,8.52
2018-01-08T11:00:09.427Z,10.45
2018-01-08T11:02:55.693Z,15.02
2018-01-08T11:05:23.118Z,7.82
2018-01-08T11:07:50.633Z,8.70
2018-01-08T11:10:18.098Z,8.02
2018-01-08T11:12:45.517Z,10.65
2018-01-08T11:15:12.937Z,12.43
2018-01-08T11:17:40.468Z,8.40
2018-01-08T11:20:07.889Z,6.35
2018-01-08T11:22:35.310Z,10.13
2018-01-08T11:25:02.737Z,10.48
2018-01-08T11:27:30.355Z,6.95
2018-01-08T11:29:58.064Z,12.65
2018-01-08T11:32:25.522Z,10.38
2018-01-08T11:34:52.941Z,24.33
2018-01-08T11:37:20.441Z,7.20
2018-01-08T11:39:47.902Z,5.28
2018-01-08T11:42:15.342Z,10.40
2018-01-08T11:44:42.810Z,7.97
2018-01-08T11:47:10.259Z,16.90
2018-01-08T11:49:37.672Z,6.25
2018-01-08T11:52:05.105Z,7.03
2018-01-08T11:54:32.525Z,8.57
2018-01-08T11:56:59.967Z,10.75
2018-01-08T11:59:27.558Z,25.62
2018-01-08T12:01:54.993Z,14.20
2018-01-08T12:04:22.469Z,7.47
2018-01-08T12:06:49.934Z,7.95
2018-01-08T12:09:17.390Z,11.02
2018-01-08T12:11:44.845Z,10.25
2018-01-08T12:14:12.301Z,7.20
2018-01-08T12:16:39.765Z,8.15
2018-01-08T12:19:07.190Z,9.07
2018-01-08T12:21:34.608Z,7.57
2018-01-08T12:24:02.042Z,5.60
2018-01-08T12:26:29.521Z,8.43
2018-01-08T12:28:57.048Z,14.02
2018-01-08T12:31:24.468Z,9.20
2018-01-08T12:33:51.889Z,8.10
2018-01-08T12:36:19.433Z,7.78
2018-01-08T12:38:47.053Z,12.13
2018-01-08T12:41:15.570Z,8.40
2018-01-08T12:43:43.337Z,15.48
2018-01-08T12:46:10.789Z,2.97
2018-01-08T12:48:38.226Z,7.70
2018-01-08T12:51:05.646Z,7.95
2018-01-08T12:53:33.085Z,7.12
2018-01-08T12:56:00.507Z,7.68
2018-01-08T12:58:28.085Z,9.82
2018-01-08T13:00:55.538Z,11.52
2018-01-08T13:03:22.988Z,12.52
2018-01-08T13:05:50.408Z,10.70
2018-01-08T13:08:17.849Z,15.15
2018-01-08T13:10:45.265Z,4.87
2018-01-08T13:13:12.830Z,9.35
2018-01-08T13:15:40.245Z,9.27
2018-01-08T13:18:07.847Z,7.25
2018-01-08T13:20:35.437Z,8.65
2018-01-08T13:23:02.908Z,7.20
2018-01-08T13:25:30.329Z,8.88
2018-01-08T13:27:57.880Z,10.23
2018-01-08T13:30:25.377Z,8.57
2018-01-08T13:32:53.025Z,13.65
2018-01-08T13:35:20.460Z,15.70
2018-01-08T13:37:48.010Z,10.15
2018-01-08T13:40:15.477Z,8.98
2018-01-08T13:42:42.936Z,8.23
2018-01-08T13:45:10.361Z,12.13
2018-01-08T13:47:37.856Z,6.18
2018-01-08T13:50:05.272Z,12.13
2018-01-08T13:52:32.708Z,10.13
2018-01-08T13:55:00.122Z,9.77
2018-01-08T13:57:27.541Z,8.02
2018-01-08T13:59:55.725Z,7.22
2018-01-08T14:02:23.149Z,10.73
2018-01-08T14:04:50.590Z,10.55
2018-01-08T14:07:18.150Z,9.73
2018-01-08T14:09:45.902Z,15.52
2018-01-08T14:12:13.354Z,8.60
2018-01-08T14:14:40.800Z,12.93
2018-01-08T14:17:08.269Z,14.02
2018-01-08T14:19:35.739Z,9.93
2018-01-08T14:22:08.070Z,9.00
2018-01-08T14:24:35.633Z,9.15
2018-01-08T14:27:03.325Z,13.40
2018-01-08T14:29:31.087Z,9.32
2018-01-08T14:31:58.877Z,7.90
2018-01-08T14:34:26.316Z,11.93
2018-01-08T14:36:53.744Z,11.48
2018-01-08T14:39:21.176Z,14.50
2018-01-08T14:41:48.682Z,9.60
2018-01-08T14:44:16.116Z,9.30
2018-01-08T14:46:43.601Z,10.80
2018-01-08T14:49:11.057Z,12.95
2018-01-08T14:51:38.566Z,15.63
2018-01-08T14:54:06.169Z,8.23
2018-01-08T14:56:33.577Z,11.02
2018-01-08T14:59:01.013Z,9.57
2018-01-08T15:01:28.557Z,18.40
2018-01-08T15:03:55.998Z,12.13
2018-01-08T15:06:23.766Z,14.27
2018-01-08T15:08:51.245Z,7.18
2018-01-08T15:11:18.663Z,9.82
2018-01-08T15:13:46.269Z,9.63
2018-01-08T15:16:13.690Z,12.37
2018-01-08T15:18:41.170Z,3.95
2018-01-08T15:21:08.589Z,11.82
2018-01-08T15:23:36.026Z,11.35
2018-01-08T15:26:03.457Z,9.25
2018-01-08T15:28:30.884Z,8.38
2018-01-08T15:30:58.362Z,14.68
2018-01-08T15:33:25.845Z,9.48
2018-01-08T15:35:53.378Z,9.25
2018-01-08T15:38:21.013Z,13.18
2018-01-08T15:40:48.545Z,11.60
2018-01-08T15:43:15.980Z,10.38
2018-01-08T15:45:43.409Z,9.32
2018-01-08T15:48:10.834Z,10.90
2018-01-08T15:50:38.472Z,13.23
2018-01-08T15:53:05.893Z,10.00
2018-01-08T15:55:33.337Z,12.85
2018-01-08T15:58:00.779Z,7.82
2018-01-08T16:00:28.272Z,13.73
2018-01-08T16:02:55.808Z,12.00
2018-01-08T16:05:23.410Z,10.23
2018-01-08T16:07:50.879Z,10.55
2018-01-08T16:10:18.317Z,9.40
2018-01-08T16:12:45.858Z,12.30
2018-01-08T16:15:13.292Z,10.30
2018-01-08T16:17:40.773Z,7.60
2018-01-08T16:20:08.217Z,13.80
2018-01-08T16:22:35.639Z,9.82
2018-01-08T16:25:03.991Z,18.27
2018-01-08T16:27:31.552Z,10.00
2018-01-08T16:29:59.153Z,11.68
2018-01-08T16:32:26.746Z,10.18
2018-01-08T16:34:54.205Z,11.77
2018-01-08T16:37:21.834Z,13.73
2018-01-08T16:39:49.622Z,14.73
2018-01-08T16:42:17.091Z,11.73
2018-01-08T16:44:44.646Z,18.70
2018-01-08T16:47:12.140Z,14.63
2018-01-08T16:49:39.537Z,18.00
2018-01-08T16:52:07.053Z,12.35
2018-01-08T16:54:34.481Z,12.10
2018-01-08T16:57:01.922Z,17.65
2018-01-08T16:59:29.349Z,20.10
2018-01-08T17:01:56.789Z,19.12
2018-01-08T17:04:24.313Z,12.30
2018-01-08T17:06:51.856Z,19.15
2018-01-08T17:09:19.533Z,14.25
2018-01-08T17:11:47.189Z,16.15
2018-01-08T17:14:14.602Z,11.45
2018-01-08T17:16:42.045Z,20.08
2018-01-08T17:19:09.545Z,15.43
2018-01-08T17:21:37.133Z,14.80
2018-01-08T17:24:04.585Z,15.77
2018-01-08T17:26:32.242Z,10.65
2018-01-08T17:28:59.642Z,13.55
2018-01-08T17:31:27.265Z,32.17
2018-01-08T17:33:54.693Z,12.85
2018-01-08T17:36:22.129Z,20.00
2018-01-08T17:38:49.649Z,9.57
2018-01-08T17:41:17.102Z,12.45
2018-01-08T17:43:44.562Z,17.83
2018-01-08T17:46:12.013Z,15.20
2018-01-08T17:48:39.438Z,12.75
2018-01-08T17:51:06.940Z,16.95
2018-01-08T17:53:34.361Z,10.23
2018-01-08T17:56:01.786Z,14.70
2018-01-08T17:58:29.209Z,15.13
2018-01-08T18:00:56.682Z,10.82
2018-01-08T18:03:24.125Z,14.18
2018-01-08T18:05:51.589Z,17.75
2018-01-08T18:08:19.069Z,9.70
2018-01-08T18:10:46.593Z,19.95
2018-01-08T18:13:14.366Z,25.17
2018-01-08T18:15:41.858Z,25.88
2018-01-08T18:18:09.474Z,10.98
2018-01-08T18:20:37.042Z,9.15
2018-01-08T18:23:04.690Z,15.27
2018-01-08T18:25:32.309Z,14.82
2018-01-08T18:27:59.831Z,19.98
2018-01-08T18:30:27.257Z,16.73
2018-01-08T18:32:54.934Z,21.10
2018-01-08T18:35:22.405Z,17.58
2018-01-08T18:37:49.862Z,23.83
2018-01-08T18:40:17.317Z,13.88
2018-01-08T18:42:44.971Z,29.08
2018-01-08T18:45:12.549Z,10.65
2018-01-08T18:47:40.190Z,15.55
2018-01-08T18:50:07.614Z,21.42
2018-01-08T18:52:36.027Z,14.77
2018-01-08T18:55:03.566Z,20.67
2018-01-08T18:57:31.009Z,17.20
2018-01-08T18:59:58.438Z,16.92
2018-01-08T19:02:25.890Z,10.38
2018-01-08T19:04:53.335Z,18.95
2018-01-08T19:07:20.813Z,16.90
2018-01-08T19:09:48.261Z,19.85
2018-01-08T19:12:15.817Z,18.35
2018-01-08T19:14:43.445Z,20.58
2018-01-08T19:17:11.033Z,25.75
2018-01-08T19:19:38.794Z,15.50
2018-01-08T19:22:06.436Z,28.95
2018-01-08T19:24:33.922Z,9.65
2018-01-08T19:27:01.454Z,24.15
2018-01-08T19:29:28.938Z,24.55
2018-01-08T19:31:56.365Z,21.52
2018-01-08T19:34:23.854Z,21.02
2018-01-08T19:36:51.486Z,25.85
2018-01-08T19:39:18.990Z,19.90
2018-01-08T19:41:46.432Z,14.77
2018-01-08T19:44:13.991Z,23.95
2018-01-08T19:46:41.752Z,22.80
2018-01-08T19:49:09.198Z,13.73
2018-01-08T19:51:36.621Z,24.90
2018-01-08T19:54:04.133Z,19.55
2018-01-08T19:56:31.761Z,26.67
2018-01-08T19:58:59.201Z,19.12
2018-01-08T20:01:27.397Z,25.10
2018-01-08T20:03:54.828Z,20.70
2018-01-08T20:06:22.261Z,24.65
2018-01-08T20:08:49.718Z,22.33
2018-01-08T20:11:17.258Z,20.37
2018-01-08T20:13:44.902Z,29.58
2018-01-08T20:16:12.330Z,24.75
2018-01-08T20:18:40.561Z,17.60
2018-01-08T20:21:08.333Z,14.90
2018-01-08T20:23:35.773Z,19.23
2018-01-08T20:26:03.206Z,29.73
2018-01-08T20:28:30.645Z,27.30
2018-01-08T20:30:58.066Z,22.30
2018-01-08T20:33:25.601Z,24.85
2018-01-08T20:35:53.026Z,33.03
2018-01-08T20:38:20.453Z,28.48
2018-01-08T20:40:48.646Z,25.65
2018-01-08T20:43:16.245Z,28.77
2018-01-08T20:45:43.820Z,24.77
2018-01-08T20:48:11.240Z,21.55
2018-01-08T20:50:38.738Z,27.52
2018-01-08T20:53:06.154Z,22.83
2018-01-08T20:55:33.598Z,24.00
2018-01-08T20:58:01.101Z,28.92
2018-01-08T21:00:28.560Z,18.98
2018-01-08T21:02:56.369Z,24.23
2018-01-08T21:05:24.093Z,14.90
2018-01-08T21:07:51.733Z,26.33
2018-01-08T21:10:19.317Z,27.67
2018-01-08T21:12:46.774Z,24.10
2018-01-08T21:15:14.242Z,23.25
2018-01-08T21:17:41.665Z,23.23
2018-01-08T21:20:09.094Z,30.35
2018-01-08T21:22:36.517Z,30.83
2018-01-08T21:25:03.937Z,25.45
2018-01-08T21:27:31.473Z,20.92
2018-01-08T21:29:59.804Z,29.20
2018-01-08T21:32:27.309Z,24.95
2018-01-08T21:34:55.501Z,22.65
2018-01-08T21:37:23.124Z,26.80
2018-01-08T21:39:51.449Z,27.42
2018-01-08T21:42:19.005Z,21.50
2018-01-08T21:44:46.493Z,22.85
2018-01-08T21:47:14.127Z,21.37
2018-01-08T21:49:41.585Z,24.70
2018-01-08T21:52:09.173Z,24.25
2018-01-08T21:54:36.809Z,25.20
2018-01-08T21:57:04.402Z,20.33
2018-01-08T21:59:32.042Z,31.48
2018-01-08T22:01:59.465Z,26.62
2018-01-08T22:04:26.962Z,35.50
2018-01-08T22:06:54.533Z,30.10
2018-01-08T22:09:22.186Z,24.20
2018-01-08T22:11:49.769Z,22.77
2018-01-08T22:14:17.247Z,25.95
2018-01-08T22:16:44.673Z,27.13
2018-01-08T22:19:12.106Z,22.52
2018-01-08T22:21:39.529Z,20.98
2018-01-08T22:24:07.050Z,25.85
2018-01-08T22:26:34.693Z,23.02
2018-01-08T22:29:02.278Z,21.58
2018-01-08T22:31:29.718Z,25.23
2018-01-08T22:33:57.200Z,26.70
2018-01-08T22:36:24.621Z,21.00
2018-01-08T22:38:52.041Z,25.62
2018-01-08T22:41:19.474Z,22.13
2018-01-08T22:43:46.922Z,23.02
2018-01-08T22:46:14.350Z,22.02
2018-01-08T22:48:41.941Z,21.17
2018-01-08T22:51:10.301Z,25.58
2018-01-08T22:53:37.773Z,25.20
2018-01-08T22:56:05.202Z,20.98
2018-01-08T22:58:32.689Z,18.35
2018-01-08T23:01:00.161Z,18.67
2018-01-08T23:03:27.593Z,24.77
2018-01-08T23:05:55.057Z,26.52
2018-01-08T23:08:22.517Z,25.10
2018-01-08T23:10:49.949Z,21.40
2018-01-08T23:13:17.374Z,16.75
2018-01-08T23:15:45.717Z,20.15
2018-01-08T23:18:13.180Z,18.90
2018-01-08T23:20:40.923Z,15.70
2018-01-08T23:23:08.375Z,20.88
2018-01-08T23:25:35.877Z,26.33
2018-01-08T23:28:03.409Z,21.73
2018-01-08T23:30:30.855Z,20.55
2018-01-08T23:32:58.282Z,21.50
2018-01-08T23:35:25.716Z,21.60
2018-01-08T23:37:53.145Z,16.85
2018-01-08T23:40:20.638Z,31.95
2018-01-08T23:42:48.159Z,18.87
2018-01-08T23:45:15.793Z,22.65
2018-01-08T23:47:43.281Z,21.90
2018-01-08T23:50:10.837Z,14.48
2018-01-08T23:52:38.298Z,16.00
2018-01-08T23:55:05.726Z,19.95
2018-01-08T23:57:33.173Z,37.78
